sensor_id;sensor_type;location;lat;lon;timestamp;temperature;humidity
48994;DHT22;34804;49.214;12.276;2024-03-23T00:56:00;8.00;87.30
48994;DHT22;34804;49.214;12.276;2024-03-23T00:58:26;8.00;87.20
48994;DHT22;34804;49.214;12.276;2024-03-23T01:00:52;7.80;86.90
48994;DHT22;34804;49.214;12.276;2024-03-23T01:03:17;7.60;87.00
48994;DHT22;34804;49.214;12.276;2024-03-23T01:05:43;7.60;87.40
48994;DHT22;34804;49.214;12.276;2024-03-23T01:08:09;7.60;88.30
48994;DHT22;34804;49.214;12.276;2024-03-23T01:10:35;7.50;87.30
48994;DHT22;34804;49.214;12.276;2024-03-23T01:13:01;7.40;87.60
48994;DHT22;34804;49.214;12.276;2024-03-23T01:15:26;7.40;88.00
48994;DHT22;34804;49.214;12.276;2024-03-23T01:17:52;7.50;88.50
48994;DHT22;34804;49.214;12.276;2024-03-23T01:20:18;7.50;88.80
48994;DHT22;34804;49.214;12.276;2024-03-23T01:22:44;7.40;88.80
48994;DHT22;34804;49.214;12.276;2024-03-23T01:25:10;7.40;89.60
48994;DHT22;34804;49.214;12.276;2024-03-23T01:27:36;7.40;89.50
48994;DHT22;34804;49.214;12.276;2024-03-23T01:30:02;7.30;89.50
48994;DHT22;34804;49.214;12.276;2024-03-23T01:32:28;7.20;89.50
48994;DHT22;34804;49.214;12.276;2024-03-23T01:34:54;7.30;90.30
48994;DHT22;34804;49.214;12.276;2024-03-23T01:37:21;7.30;90.10
48994;DHT22;34804;49.214;12.276;2024-03-23T01:39:47;7.20;89.80
48994;DHT22;34804;49.214;12.276;2024-03-23T01:42:13;7.20;90.20
48994;DHT22;34804;49.214;12.276;2024-03-23T01:44:39;7.20;90.30
48994;DHT22;34804;49.214;12.276;2024-03-23T01:47:06;7.20;90.30
48994;DHT22;34804;49.214;12.276;2024-03-23T01:49:33;7.20;90.60
48994;DHT22;34804;49.214;12.276;2024-03-23T01:51:59;7.30;91.20
48994;DHT22;34804;49.214;12.276;2024-03-23T01:54:25;7.30;90.80
48994;DHT22;34804;49.214;12.276;2024-03-23T01:56:51;7.30;90.70
48994;DHT22;34804;49.214;12.276;2024-03-23T01:59:17;7.30;90.30
48994;DHT22;34804;49.214;12.276;2024-03-23T02:01:43;7.20;90.00
48994;DHT22;34804;49.214;12.276;2024-03-23T02:04:09;7.30;90.10
48994;DHT22;34804;49.214;12.276;2024-03-23T02:06:35;7.20;89.90
48994;DHT22;34804;49.214;12.276;2024-03-23T02:09:01;7.30;90.30
48994;DHT22;34804;49.214;12.276;2024-03-23T02:11:27;7.20;89.50
48994;DHT22;34804;49.214;12.276;2024-03-23T02:13:53;7.20;89.70
48994;DHT22;34804;49.214;12.276;2024-03-23T02:16:19;7.10;89.30
48994;DHT22;34804;49.214;12.276;2024-03-23T02:18:45;7.00;89.40
48994;DHT22;34804;49.214;12.276;2024-03-23T02:21:10;7.00;89.90
48994;DHT22;34804;49.214;12.276;2024-03-23T02:23:36;7.00;89.70
48994;DHT22;34804;49.214;12.276;2024-03-23T02:26:02;6.90;89.80
48994;DHT22;34804;49.214;12.276;2024-03-23T02:28:28;6.80;89.70
48994;DHT22;34804;49.214;12.276;2024-03-23T02:30:54;6.70;90.30
48994;DHT22;34804;49.214;12.276;2024-03-23T02:33:20;6.70;90.60
48994;DHT22;34804;49.214;12.276;2024-03-23T02:35:47;6.70;90.70
48994;DHT22;34804;49.214;12.276;2024-03-23T02:38:13;6.60;90.90
48994;DHT22;34804;49.214;12.276;2024-03-23T02:40:38;6.60;90.60
48994;DHT22;34804;49.214;12.276;2024-03-23T02:43:04;6.60;90.70
48994;DHT22;34804;49.214;12.276;2024-03-23T02:45:30;6.70;90.70
48994;DHT22;34804;49.214;12.276;2024-03-23T02:47:57;6.70;90.30
48994;DHT22;34804;49.214;12.276;2024-03-23T02:50:23;6.50;89.70
48994;DHT22;34804;49.214;12.276;2024-03-23T02:52:49;6.50;90.70
48994;DHT22;34804;49.214;12.276;2024-03-23T02:55:15;6.50;90.80
48994;DHT22;34804;49.214;12.276;2024-03-23T02:57:41;6.50;91.50
48994;DHT22;34804;49.214;12.276;2024-03-23T03:00:07;6.60;91.60
48994;DHT22;34804;49.214;12.276;2024-03-23T03:02:34;6.70;91.30
48994;DHT22;34804;49.214;12.276;2024-03-23T03:05:00;6.80;91.30
48994;DHT22;34804;49.214;12.276;2024-03-23T03:07:25;6.60;90.20
48994;DHT22;34804;49.214;12.276;2024-03-23T03:09:51;6.70;91.50
48994;DHT22;34804;49.214;12.276;2024-03-23T03:12:17;6.80;90.90
48994;DHT22;34804;49.214;12.276;2024-03-23T03:14:43;6.80;91.00
48994;DHT22;34804;49.214;12.276;2024-03-23T03:17:09;6.80;90.90
48994;DHT22;34804;49.214;12.276;2024-03-23T03:19:35;6.90;90.90
48994;DHT22;34804;49.214;12.276;2024-03-23T03:22:01;6.90;90.80
48994;DHT22;34804;49.214;12.276;2024-03-23T03:24:27;7.00;91.20
48994;DHT22;34804;49.214;12.276;2024-03-23T03:26:52;7.00;90.70
48994;DHT22;34804;49.214;12.276;2024-03-23T03:29:18;6.90;90.80
48994;DHT22;34804;49.214;12.276;2024-03-23T03:31:44;6.90;90.70
48994;DHT22;34804;49.214;12.276;2024-03-23T03:34:10;6.80;91.00
48994;DHT22;34804;49.214;12.276;2024-03-23T03:36:36;6.80;91.20
48994;DHT22;34804;49.214;12.276;2024-03-23T03:39:02;6.80;91.40
48994;DHT22;34804;49.214;12.276;2024-03-23T03:41:32;6.80;91.80
48994;DHT22;34804;49.214;12.276;2024-03-23T03:43:58;6.90;92.00
48994;DHT22;34804;49.214;12.276;2024-03-23T03:46:30;7.10;92.60
48994;DHT22;34804;49.214;12.276;2024-03-23T03:48:56;7.20;92.60
48994;DHT22;34804;49.214;12.276;2024-03-23T03:51:22;7.40;92.60
48994;DHT22;34804;49.214;12.276;2024-03-23T03:53:48;7.50;92.60
48994;DHT22;34804;49.214;12.276;2024-03-23T03:56:14;7.70;92.50
48994;DHT22;34804;49.214;12.276;2024-03-23T03:58:40;7.80;92.30
48994;DHT22;34804;49.214;12.276;2024-03-23T04:01:05;7.80;92.20
48994;DHT22;34804;49.214;12.276;2024-03-23T04:03:32;7.90;92.10
48994;DHT22;34804;49.214;12.276;2024-03-23T04:05:57;7.90;91.80
48994;DHT22;34804;49.214;12.276;2024-03-23T04:08:24;7.90;91.70
48994;DHT22;34804;49.214;12.276;2024-03-23T04:10:50;7.90;91.60
48994;DHT22;34804;49.214;12.276;2024-03-23T04:13:16;7.90;91.40
48994;DHT22;34804;49.214;12.276;2024-03-23T04:15:42;7.90;91.40
48994;DHT22;34804;49.214;12.276;2024-03-23T04:18:08;7.90;91.20
48994;DHT22;34804;49.214;12.276;2024-03-23T04:20:34;7.90;91.20
48994;DHT22;34804;49.214;12.276;2024-03-23T04:23:00;7.90;91.20
48994;DHT22;34804;49.214;12.276;2024-03-23T04:25:26;8.00;91.00
48994;DHT22;34804;49.214;12.276;2024-03-23T04:27:52;8.00;90.90
48994;DHT22;34804;49.214;12.276;2024-03-23T04:30:17;8.10;90.70
48994;DHT22;34804;49.214;12.276;2024-03-23T04:32:44;8.00;90.20
48994;DHT22;34804;49.214;12.276;2024-03-23T04:35:10;7.90;90.20
48994;DHT22;34804;49.214;12.276;2024-03-23T04:37:36;7.90;90.30
48994;DHT22;34804;49.214;12.276;2024-03-23T04:40:03;7.90;90.30
48994;DHT22;34804;49.214;12.276;2024-03-23T04:42:30;7.90;89.90
48994;DHT22;34804;49.214;12.276;2024-03-23T04:44:56;7.90;89.80
48994;DHT22;34804;49.214;12.276;2024-03-23T04:47:21;7.90;89.90
48994;DHT22;34804;49.214;12.276;2024-03-23T04:49:48;7.90;89.70
48994;DHT22;34804;49.214;12.276;2024-03-23T04:52:14;7.90;89.70
48994;DHT22;34804;49.214;12.276;2024-03-23T04:54:41;7.80;89.60
48994;DHT22;34804;49.214;12.276;2024-03-23T04:57:07;7.80;89.70
48994;DHT22;34804;49.214;12.276;2024-03-23T04:59:32;7.80;89.70
48994;DHT22;34804;49.214;12.276;2024-03-23T05:01:59;7.80;89.70
48994;DHT22;34804;49.214;12.276;2024-03-23T05:04:26;7.70;89.60
48994;DHT22;34804;49.214;12.276;2024-03-23T05:06:51;7.60;89.80
48994;DHT22;34804;49.214;12.276;2024-03-23T05:09:17;7.60;90.10
48994;DHT22;34804;49.214;12.276;2024-03-23T05:11:43;7.60;90.10
48994;DHT22;34804;49.214;12.276;2024-03-23T05:14:10;7.70;90.10
48994;DHT22;34804;49.214;12.276;2024-03-23T05:16:36;7.80;89.70
48994;DHT22;34804;49.214;12.276;2024-03-23T05:19:02;7.90;89.30
48994;DHT22;34804;49.214;12.276;2024-03-23T05:21:28;7.90;89.10
48994;DHT22;34804;49.214;12.276;2024-03-23T05:23:54;8.00;89.00
48994;DHT22;34804;49.214;12.276;2024-03-23T05:26:21;8.10;88.60
48994;DHT22;34804;49.214;12.276;2024-03-23T05:28:47;8.10;88.10
48994;DHT22;34804;49.214;12.276;2024-03-23T05:31:12;8.20;88.30
48994;DHT22;34804;49.214;12.276;2024-03-23T05:33:47;8.40;86.80
48994;DHT22;34804;49.214;12.276;2024-03-23T05:36:13;8.70;84.90
48994;DHT22;34804;49.214;12.276;2024-03-23T05:38:39;8.80;84.60
48994;DHT22;34804;49.214;12.276;2024-03-23T05:41:05;9.00;83.30
48994;DHT22;34804;49.214;12.276;2024-03-23T05:43:31;9.20;83.30
48994;DHT22;34804;49.214;12.276;2024-03-23T05:45:59;9.30;82.60
48994;DHT22;34804;49.214;12.276;2024-03-23T05:48:26;9.40;82.00
48994;DHT22;34804;49.214;12.276;2024-03-23T05:50:52;9.50;81.50
48994;DHT22;34804;49.214;12.276;2024-03-23T05:53:19;9.60;80.30
48994;DHT22;34804;49.214;12.276;2024-03-23T05:55:46;9.80;80.20
48994;DHT22;34804;49.214;12.276;2024-03-23T05:58:18;9.70;80.40
48994;DHT22;34804;49.214;12.276;2024-03-23T06:00:46;9.70;80.00
48994;DHT22;34804;49.214;12.276;2024-03-23T06:03:12;9.70;79.90
48994;DHT22;34804;49.214;12.276;2024-03-23T06:05:38;9.70;79.50
48994;DHT22;34804;49.214;12.276;2024-03-23T06:08:04;9.80;78.70
48994;DHT22;34804;49.214;12.276;2024-03-23T06:10:30;9.80;78.80
48994;DHT22;34804;49.214;12.276;2024-03-23T06:12:57;9.90;78.60
48994;DHT22;34804;49.214;12.276;2024-03-23T06:15:24;9.90;78.60
48994;DHT22;34804;49.214;12.276;2024-03-23T06:17:50;9.80;79.00
48994;DHT22;34804;49.214;12.276;2024-03-23T06:20:16;9.80;79.10
48994;DHT22;34804;49.214;12.276;2024-03-23T06:22:42;9.80;79.50
48994;DHT22;34804;49.214;12.276;2024-03-23T06:25:08;9.90;79.00
48994;DHT22;34804;49.214;12.276;2024-03-23T06:27:34;10.00;79.00
48994;DHT22;34804;49.214;12.276;2024-03-23T06:30:00;10.10;78.70
48994;DHT22;34804;49.214;12.276;2024-03-23T06:32:27;10.10;79.10
48994;DHT22;34804;49.214;12.276;2024-03-23T06:34:55;10.30;78.50
48994;DHT22;34804;49.214;12.276;2024-03-23T06:37:20;10.40;77.40
48994;DHT22;34804;49.214;12.276;2024-03-23T06:39:46;10.70;77.50
48994;DHT22;34804;49.214;12.276;2024-03-23T06:42:12;10.80;76.70
48994;DHT22;34804;49.214;12.276;2024-03-23T06:44:39;10.90;76.60
48994;DHT22;34804;49.214;12.276;2024-03-23T06:47:05;11.00;76.80
48994;DHT22;34804;49.214;12.276;2024-03-23T06:49:31;11.20;75.20
48994;DHT22;34804;49.214;12.276;2024-03-23T06:51:57;11.30;75.90
48994;DHT22;34804;49.214;12.276;2024-03-23T06:54:24;11.40;76.30
48994;DHT22;34804;49.214;12.276;2024-03-23T06:56:51;11.50;76.00
48994;DHT22;34804;49.214;12.276;2024-03-23T06:59:16;11.60;74.60
48994;DHT22;34804;49.214;12.276;2024-03-23T07:01:43;11.60;76.10
48994;DHT22;34804;49.214;12.276;2024-03-23T07:04:09;11.70;73.60
48994;DHT22;34804;49.214;12.276;2024-03-23T07:06:42;11.80;72.90
48994;DHT22;34804;49.214;12.276;2024-03-23T07:09:08;11.90;73.90
48994;DHT22;34804;49.214;12.276;2024-03-23T07:11:34;12.10;73.60
48994;DHT22;34804;49.214;12.276;2024-03-23T07:14:00;12.20;74.20
48994;DHT22;34804;49.214;12.276;2024-03-23T07:16:29;12.10;73.30
48994;DHT22;34804;49.214;12.276;2024-03-23T07:18:55;11.90;73.70
48994;DHT22;34804;49.214;12.276;2024-03-23T07:21:21;11.80;73.80
48994;DHT22;34804;49.214;12.276;2024-03-23T07:23:47;11.80;75.60
48994;DHT22;34804;49.214;12.276;2024-03-23T07:26:13;11.80;73.50
48994;DHT22;34804;49.214;12.276;2024-03-23T07:28:40;11.80;73.60
48994;DHT22;34804;49.214;12.276;2024-03-23T07:31:15;11.70;73.80
48994;DHT22;34804;49.214;12.276;2024-03-23T07:33:43;11.70;72.70
48994;DHT22;34804;49.214;12.276;2024-03-23T07:36:09;11.60;74.20
48994;DHT22;34804;49.214;12.276;2024-03-23T07:38:35;11.40;73.90
48994;DHT22;34804;49.214;12.276;2024-03-23T07:41:25;11.40;74.50
48994;DHT22;34804;49.214;12.276;2024-03-23T07:43:53;11.40;74.80
48994;DHT22;34804;49.214;12.276;2024-03-23T07:46:20;11.30;76.70
48994;DHT22;34804;49.214;12.276;2024-03-23T07:48:46;11.10;78.00
48994;DHT22;34804;49.214;12.276;2024-03-23T07:51:21;11.00;78.70
48994;DHT22;34804;49.214;12.276;2024-03-23T07:53:47;10.90;78.90
48994;DHT22;34804;49.214;12.276;2024-03-23T07:56:16;10.80;79.20
48994;DHT22;34804;49.214;12.276;2024-03-23T07:58:43;10.70;79.80
48994;DHT22;34804;49.214;12.276;2024-03-23T08:01:13;10.70;79.30
48994;DHT22;34804;49.214;12.276;2024-03-23T08:03:45;10.60;79.70
48994;DHT22;34804;49.214;12.276;2024-03-23T08:06:16;10.60;79.80
48994;DHT22;34804;49.214;12.276;2024-03-23T08:08:45;10.50;80.90
48994;DHT22;34804;49.214;12.276;2024-03-23T08:11:11;10.40;79.90
48994;DHT22;34804;49.214;12.276;2024-03-23T08:13:39;10.30;81.40
48994;DHT22;34804;49.214;12.276;2024-03-23T08:16:06;10.20;82.50
48994;DHT22;34804;49.214;12.276;2024-03-23T08:18:32;10.10;83.20
48994;DHT22;34804;49.214;12.276;2024-03-23T08:21:02;10.00;82.80
48994;DHT22;34804;49.214;12.276;2024-03-23T08:23:29;10.00;82.30
48994;DHT22;34804;49.214;12.276;2024-03-23T08:26:33;9.90;83.20
48994;DHT22;34804;49.214;12.276;2024-03-23T08:28:51;10.00;84.00
48994;DHT22;34804;49.214;12.276;2024-03-23T08:31:17;9.90;83.80
48994;DHT22;34804;49.214;12.276;2024-03-23T08:33:43;9.90;84.10
48994;DHT22;34804;49.214;12.276;2024-03-23T08:36:10;9.80;84.50
48994;DHT22;34804;49.214;12.276;2024-03-23T08:38:40;9.70;85.00
48994;DHT22;34804;49.214;12.276;2024-03-23T08:41:11;9.60;85.30
48994;DHT22;34804;49.214;12.276;2024-03-23T08:43:38;9.50;85.80
48994;DHT22;34804;49.214;12.276;2024-03-23T08:46:06;9.50;85.90
48994;DHT22;34804;49.214;12.276;2024-03-23T08:48:34;9.50;86.60
48994;DHT22;34804;49.214;12.276;2024-03-23T08:51:10;9.50;86.60
48994;DHT22;34804;49.214;12.276;2024-03-23T08:53:37;9.50;86.90
48994;DHT22;34804;49.214;12.276;2024-03-23T08:56:04;9.50;86.60
48994;DHT22;34804;49.214;12.276;2024-03-23T08:58:31;9.50;86.80
48994;DHT22;34804;49.214;12.276;2024-03-23T09:01:09;9.50;85.70
48994;DHT22;34804;49.214;12.276;2024-03-23T09:03:35;9.60;85.70
48994;DHT22;34804;49.214;12.276;2024-03-23T09:06:07;9.60;85.90
48994;DHT22;34804;49.214;12.276;2024-03-23T09:08:33;9.60;86.10
48994;DHT22;34804;49.214;12.276;2024-03-23T09:11:04;9.60;85.90
48994;DHT22;34804;49.214;12.276;2024-03-23T09:13:35;9.80;86.00
48994;DHT22;34804;49.214;12.276;2024-03-23T09:16:01;9.80;85.40
48994;DHT22;34804;49.214;12.276;2024-03-23T09:18:30;9.80;84.60
48994;DHT22;34804;49.214;12.276;2024-03-23T09:20:59;9.90;84.40
48994;DHT22;34804;49.214;12.276;2024-03-23T09:23:25;10.00;85.10
48994;DHT22;34804;49.214;12.276;2024-03-23T09:25:51;10.10;84.70
48994;DHT22;34804;49.214;12.276;2024-03-23T09:28:17;10.20;83.40
48994;DHT22;34804;49.214;12.276;2024-03-23T09:30:43;10.20;82.80
48994;DHT22;34804;49.214;12.276;2024-03-23T09:33:13;10.30;84.20
48994;DHT22;34804;49.214;12.276;2024-03-23T09:35:39;10.30;82.20
48994;DHT22;34804;49.214;12.276;2024-03-23T09:38:06;10.30;82.80
48994;DHT22;34804;49.214;12.276;2024-03-23T09:40:40;10.20;82.60
48994;DHT22;34804;49.214;12.276;2024-03-23T09:43:08;10.20;82.00
48994;DHT22;34804;49.214;12.276;2024-03-23T09:45:38;10.30;83.20
48994;DHT22;34804;49.214;12.276;2024-03-23T09:48:06;10.20;83.00
48994;DHT22;34804;49.214;12.276;2024-03-23T09:50:32;10.30;82.60
48994;DHT22;34804;49.214;12.276;2024-03-23T09:52:58;10.30;83.50
48994;DHT22;34804;49.214;12.276;2024-03-23T09:55:24;10.40;82.40
48994;DHT22;34804;49.214;12.276;2024-03-23T09:57:50;10.40;83.60
48994;DHT22;34804;49.214;12.276;2024-03-23T10:00:16;10.40;82.70
48994;DHT22;34804;49.214;12.276;2024-03-23T10:02:42;10.30;81.80
48994;DHT22;34804;49.214;12.276;2024-03-23T10:05:22;10.20;80.70
48994;DHT22;34804;49.214;12.276;2024-03-23T10:07:51;10.10;79.40
48994;DHT22;34804;49.214;12.276;2024-03-23T10:10:18;10.00;79.70
48994;DHT22;34804;49.214;12.276;2024-03-23T10:12:48;10.00;78.20
48994;DHT22;34804;49.214;12.276;2024-03-23T10:15:21;10.00;78.50
48994;DHT22;34804;49.214;12.276;2024-03-23T10:17:47;10.00;76.90
48994;DHT22;34804;49.214;12.276;2024-03-23T10:20:19;9.90;76.70
48994;DHT22;34804;49.214;12.276;2024-03-23T10:22:46;9.70;76.00
48994;DHT22;34804;49.214;12.276;2024-03-23T10:25:12;9.60;76.10
48994;DHT22;34804;49.214;12.276;2024-03-23T10:27:39;9.50;75.40
48994;DHT22;34804;49.214;12.276;2024-03-23T10:30:13;9.50;75.10
48994;DHT22;34804;49.214;12.276;2024-03-23T10:32:42;9.50;75.90
48994;DHT22;34804;49.214;12.276;2024-03-23T10:35:19;9.40;76.20
48994;DHT22;34804;49.214;12.276;2024-03-23T10:37:46;9.40;77.30
48994;DHT22;34804;49.214;12.276;2024-03-23T10:40:13;9.30;77.60
48994;DHT22;34804;49.214;12.276;2024-03-23T10:42:39;9.40;77.80
48994;DHT22;34804;49.214;12.276;2024-03-23T10:45:06;9.60;76.40
48994;DHT22;34804;49.214;12.276;2024-03-23T10:47:35;10.00;76.20
48994;DHT22;34804;49.214;12.276;2024-03-23T10:50:01;10.30;75.10
48994;DHT22;34804;49.214;12.276;2024-03-23T10:52:28;10.30;73.30
48994;DHT22;34804;49.214;12.276;2024-03-23T10:54:55;10.30;73.30
48994;DHT22;34804;49.214;12.276;2024-03-23T10:57:30;10.30;73.10
48994;DHT22;34804;49.214;12.276;2024-03-23T10:59:58;10.10;73.60
48994;DHT22;34804;49.214;12.276;2024-03-23T11:02:26;10.20;74.30
48994;DHT22;34804;49.214;12.276;2024-03-23T11:04:52;10.10;72.30
48994;DHT22;34804;49.214;12.276;2024-03-23T11:07:28;9.80;73.60
48994;DHT22;34804;49.214;12.276;2024-03-23T11:09:55;9.70;73.00
48994;DHT22;34804;49.214;12.276;2024-03-23T11:14:50;9.60;71.90
48994;DHT22;34804;49.214;12.276;2024-03-23T11:17:20;9.70;72.70
48994;DHT22;34804;49.214;12.276;2024-03-23T11:22:46;9.80;71.30
48994;DHT22;34804;49.214;12.276;2024-03-23T11:27:38;9.40;71.60
48994;DHT22;34804;49.214;12.276;2024-03-23T11:30:24;9.30;72.30
48994;DHT22;34804;49.214;12.276;2024-03-23T11:32:52;9.20;71.60
48994;DHT22;34804;49.214;12.276;2024-03-23T11:35:28;9.30;72.00
48994;DHT22;34804;49.214;12.276;2024-03-23T11:40:27;9.20;71.50
48994;DHT22;34804;49.214;12.276;2024-03-23T11:43:00;9.20;72.30
48994;DHT22;34804;49.214;12.276;2024-03-23T11:45:26;9.10;69.90
48994;DHT22;34804;49.214;12.276;2024-03-23T11:48:03;9.10;69.40
48994;DHT22;34804;49.214;12.276;2024-03-23T11:50:30;9.30;70.70
48994;DHT22;34804;49.214;12.276;2024-03-23T11:55:48;10.30;68.30
48994;DHT22;34804;49.214;12.276;2024-03-23T11:58:15;10.10;66.70
48994;DHT22;34804;49.214;12.276;2024-03-23T12:00:42;9.80;66.40
48994;DHT22;34804;49.214;12.276;2024-03-23T12:03:08;9.50;69.20
48994;DHT22;34804;49.214;12.276;2024-03-23T12:05:36;9.30;67.90
48994;DHT22;34804;49.214;12.276;2024-03-23T12:10:47;8.60;70.80
48994;DHT22;34804;49.214;12.276;2024-03-23T12:13:18;8.40;72.80
48994;DHT22;34804;49.214;12.276;2024-03-23T12:15:45;8.50;73.60
48994;DHT22;34804;49.214;12.276;2024-03-23T12:18:11;8.60;72.10
48994;DHT22;34804;49.214;12.276;2024-03-23T12:20:38;8.70;72.90
48994;DHT22;34804;49.214;12.276;2024-03-23T12:23:11;9.00;72.10
48994;DHT22;34804;49.214;12.276;2024-03-23T12:25:38;9.60;72.90
48994;DHT22;34804;49.214;12.276;2024-03-23T12:28:05;10.00;70.10
48994;DHT22;34804;49.214;12.276;2024-03-23T12:30:40;10.10;68.90
48994;DHT22;34804;49.214;12.276;2024-03-23T12:33:06;9.90;66.30
48994;DHT22;34804;49.214;12.276;2024-03-23T12:35:33;10.10;69.30
48994;DHT22;34804;49.214;12.276;2024-03-23T12:37:59;10.20;66.10
48994;DHT22;34804;49.214;12.276;2024-03-23T12:40:25;10.20;64.20
48994;DHT22;34804;49.214;12.276;2024-03-23T12:42:50;9.90;66.20
48994;DHT22;34804;49.214;12.276;2024-03-23T12:45:16;9.60;67.10
48994;DHT22;34804;49.214;12.276;2024-03-23T12:47:42;9.60;67.70
48994;DHT22;34804;49.214;12.276;2024-03-23T12:50:08;9.50;67.20
48994;DHT22;34804;49.214;12.276;2024-03-23T12:52:36;9.60;67.50
48994;DHT22;34804;49.214;12.276;2024-03-23T12:55:02;9.50;65.00
48994;DHT22;34804;49.214;12.276;2024-03-23T12:57:29;9.70;67.50
48994;DHT22;34804;49.214;12.276;2024-03-23T12:59:55;9.90;67.50
48994;DHT22;34804;49.214;12.276;2024-03-23T13:02:22;9.80;65.30
48994;DHT22;34804;49.214;12.276;2024-03-23T13:04:52;9.80;64.30
48994;DHT22;34804;49.214;12.276;2024-03-23T13:07:19;9.80;64.60
48994;DHT22;34804;49.214;12.276;2024-03-23T13:09:45;9.80;62.30
48994;DHT22;34804;49.214;12.276;2024-03-23T13:12:11;9.70;63.10
48994;DHT22;34804;49.214;12.276;2024-03-23T13:14:40;9.90;62.30
48994;DHT22;34804;49.214;12.276;2024-03-23T13:17:06;9.90;63.40
48994;DHT22;34804;49.214;12.276;2024-03-23T13:19:33;10.00;63.20
48994;DHT22;34804;49.214;12.276;2024-03-23T13:22:00;10.00;63.30
48994;DHT22;34804;49.214;12.276;2024-03-23T13:24:30;10.20;64.40
48994;DHT22;34804;49.214;12.276;2024-03-23T13:26:56;10.30;63.90
48994;DHT22;34804;49.214;12.276;2024-03-23T13:29:23;10.30;62.00
48994;DHT22;34804;49.214;12.276;2024-03-23T13:31:50;10.30;62.00
48994;DHT22;34804;49.214;12.276;2024-03-23T13:34:16;10.20;60.50
48994;DHT22;34804;49.214;12.276;2024-03-23T13:36:46;10.20;62.40
48994;DHT22;34804;49.214;12.276;2024-03-23T13:39:13;10.00;63.10
48994;DHT22;34804;49.214;12.276;2024-03-23T13:41:43;10.00;59.80
48994;DHT22;34804;49.214;12.276;2024-03-23T13:44:10;10.10;61.60
48994;DHT22;34804;49.214;12.276;2024-03-23T13:46:37;10.10;59.70
48994;DHT22;34804;49.214;12.276;2024-03-23T13:49:04;10.10;58.80
48994;DHT22;34804;49.214;12.276;2024-03-23T13:51:30;10.00;58.90
48994;DHT22;34804;49.214;12.276;2024-03-23T13:53:56;9.90;58.20
48994;DHT22;34804;49.214;12.276;2024-03-23T13:56:25;9.90;56.60
48994;DHT22;34804;49.214;12.276;2024-03-23T13:58:51;9.80;55.70
48994;DHT22;34804;49.214;12.276;2024-03-23T14:01:17;9.70;57.70
48994;DHT22;34804;49.214;12.276;2024-03-23T14:03:43;9.60;57.60
48994;DHT22;34804;49.214;12.276;2024-03-23T14:06:10;9.50;56.50
48994;DHT22;34804;49.214;12.276;2024-03-23T14:08:39;9.50;59.90
48994;DHT22;34804;49.214;12.276;2024-03-23T14:11:09;9.60;62.20
48994;DHT22;34804;49.214;12.276;2024-03-23T14:13:36;9.50;60.90
48994;DHT22;34804;49.214;12.276;2024-03-23T14:16:02;9.60;60.80
48994;DHT22;34804;49.214;12.276;2024-03-23T14:18:29;9.60;60.60
48994;DHT22;34804;49.214;12.276;2024-03-23T14:20:59;9.70;60.60
48994;DHT22;34804;49.214;12.276;2024-03-23T14:23:30;9.80;61.40
48994;DHT22;34804;49.214;12.276;2024-03-23T14:25:58;9.80;63.80
48994;DHT22;34804;49.214;12.276;2024-03-23T14:28:24;9.70;61.50
48994;DHT22;34804;49.214;12.276;2024-03-23T14:30:51;9.60;64.90
48994;DHT22;34804;49.214;12.276;2024-03-23T14:33:18;9.60;63.90
48994;DHT22;34804;49.214;12.276;2024-03-23T14:35:52;9.50;62.10
48994;DHT22;34804;49.214;12.276;2024-03-23T14:38:19;9.70;63.70
48994;DHT22;34804;49.214;12.276;2024-03-23T14:40:46;9.50;58.50
48994;DHT22;34804;49.214;12.276;2024-03-23T14:43:12;9.40;57.50
48994;DHT22;34804;49.214;12.276;2024-03-23T14:46:13;9.30;57.90
48994;DHT22;34804;49.214;12.276;2024-03-23T14:48:40;9.20;58.10
48994;DHT22;34804;49.214;12.276;2024-03-23T14:51:07;9.20;59.60
48994;DHT22;34804;49.214;12.276;2024-03-23T14:53:38;9.30;58.30
48994;DHT22;34804;49.214;12.276;2024-03-23T14:56:06;9.30;59.60
48994;DHT22;34804;49.214;12.276;2024-03-23T14:58:33;9.20;58.80
48994;DHT22;34804;49.214;12.276;2024-03-23T15:03:28;9.20;58.70
48994;DHT22;34804;49.214;12.276;2024-03-23T15:05:56;9.30;61.50
48994;DHT22;34804;49.214;12.276;2024-03-23T15:08:22;9.30;58.20
48994;DHT22;34804;49.214;12.276;2024-03-23T15:10:49;9.30;61.00
48994;DHT22;34804;49.214;12.276;2024-03-23T15:13:15;9.40;59.60
48994;DHT22;34804;49.214;12.276;2024-03-23T15:15:42;9.30;58.30
48994;DHT22;34804;49.214;12.276;2024-03-23T15:18:11;9.30;57.10
48994;DHT22;34804;49.214;12.276;2024-03-23T15:20:39;9.30;58.90
48994;DHT22;34804;49.214;12.276;2024-03-23T15:23:05;9.20;59.20
48994;DHT22;34804;49.214;12.276;2024-03-23T15:25:31;9.20;57.40
48994;DHT22;34804;49.214;12.276;2024-03-23T15:27:58;9.30;60.70
48994;DHT22;34804;49.214;12.276;2024-03-23T15:30:25;9.30;60.10
48994;DHT22;34804;49.214;12.276;2024-03-23T15:32:51;9.40;60.00
48994;DHT22;34804;49.214;12.276;2024-03-23T15:35:18;9.40;60.40
48994;DHT22;34804;49.214;12.276;2024-03-23T15:37:46;9.30;60.50
48994;DHT22;34804;49.214;12.276;2024-03-23T15:40:12;9.30;59.30
48994;DHT22;34804;49.214;12.276;2024-03-23T15:42:39;9.30;59.90
48994;DHT22;34804;49.214;12.276;2024-03-23T15:45:08;9.20;60.40
48994;DHT22;34804;49.214;12.276;2024-03-23T15:47:35;9.20;58.30
48994;DHT22;34804;49.214;12.276;2024-03-23T15:50:01;9.10;60.60
48994;DHT22;34804;49.214;12.276;2024-03-23T15:52:29;9.10;59.70
48994;DHT22;34804;49.214;12.276;2024-03-23T15:54:55;9.10;61.60
48994;DHT22;34804;49.214;12.276;2024-03-23T15:57:24;9.10;59.50
48994;DHT22;34804;49.214;12.276;2024-03-23T15:59:50;9.10;61.30
48994;DHT22;34804;49.214;12.276;2024-03-23T16:02:16;9.00;61.70
48994;DHT22;34804;49.214;12.276;2024-03-23T16:04:42;9.00;62.30
48994;DHT22;34804;49.214;12.276;2024-03-23T16:07:11;8.90;60.00
48994;DHT22;34804;49.214;12.276;2024-03-23T16:09:37;8.80;60.20
48994;DHT22;34804;49.214;12.276;2024-03-23T16:12:03;8.80;59.70
48994;DHT22;34804;49.214;12.276;2024-03-23T16:14:33;8.80;60.80
48994;DHT22;34804;49.214;12.276;2024-03-23T16:16:59;8.80;61.90
48994;DHT22;34804;49.214;12.276;2024-03-23T16:19:25;8.70;62.00
48994;DHT22;34804;49.214;12.276;2024-03-23T16:21:51;8.60;64.30
48994;DHT22;34804;49.214;12.276;2024-03-23T16:24:17;8.60;61.60
48994;DHT22;34804;49.214;12.276;2024-03-23T16:26:43;8.40;63.80
48994;DHT22;34804;49.214;12.276;2024-03-23T16:29:12;8.40;64.60
48994;DHT22;34804;49.214;12.276;2024-03-23T16:31:38;8.30;64.80
48994;DHT22;34804;49.214;12.276;2024-03-23T16:34:04;8.30;66.40
48994;DHT22;34804;49.214;12.276;2024-03-23T16:36:30;8.20;66.70
48994;DHT22;34804;49.214;12.276;2024-03-23T16:38:56;8.20;64.60
48994;DHT22;34804;49.214;12.276;2024-03-23T16:41:22;8.20;66.00